Time;durP1;ratioP1;P1;durP2;ratioP2;P2;SDS_P1;SDS_P2;PMS_P1;PMS_P2;Temp;Humidity;BMP_temperature;BMP_pressure;BME280_temperature;BME280_humidity;BME280_pressure;Samples;Min_cycle;Max_cycle;Signal;HPM_P1;HPM_P2
2022/12/23 00:01:53;;;;;;;27.60;3.58;;;;;;;9.52;100.00;99928.81;5091357;28;20063;-64
2022/12/23 00:04:20;;;;;;;22.92;3.42;;;;;;;9.52;100.00;99924.34;5075601;28;20090;-64
2022/12/23 00:06:46;;;;;;;21.58;3.88;;;;;;;9.50;100.00;99922.88;5075427;28;20123;-64
2022/12/23 00:09:13;;;;;;;17.33;3.85;;;;;;;9.51;100.00;99917.38;5074522;28;20079;-64
2022/12/23 00:15:04;;;;;;;15.90;3.53;;;;;;;9.46;100.00;99922.38;5074564;28;20470;-64
2022/12/23 00:17:13;;;;;;;18.52;3.63;;;;;;;9.41;100.00;99916.75;5075648;28;20048;-65
2022/12/23 00:19:47;;;;;;;16.83;3.22;;;;;;;9.45;100.00;99910.13;5059065;28;20049;-65
2022/12/23 00:22:14;;;;;;;16.52;3.50;;;;;;;9.40;100.00;99921.22;5074152;28;20170;-64
2022/12/23 00:24:41;;;;;;;14.43;3.35;;;;;;;9.44;100.00;99918.22;5074284;28;20044;-64
2022/12/23 00:27:07;;;;;;;16.13;3.05;;;;;;;9.41;100.00;99914.91;5057631;28;20044;-65
2022/12/23 00:29:34;;;;;;;14.50;3.30;;;;;;;9.44;100.00;99918.22;5075377;28;20494;-65
2022/12/23 00:32:01;;;;;;;12.95;3.00;;;;;;;9.46;100.00;99922.38;5075618;28;20052;-65
2022/12/23 00:34:28;;;;;;;15.63;3.15;;;;;;;9.45;100.00;99923.34;5071831;28;20044;-65
2022/12/23 00:36:54;;;;;;;13.63;3.10;;;;;;;9.36;100.00;99930.47;5089828;28;20048;-64
2022/12/23 00:45:14;;;;;;;13.48;3.03;;;;;;;9.41;100.00;99929.97;5074196;28;20045;-65
2022/12/23 00:50:29;;;;;;;14.75;2.88;;;;;;;9.38;100.00;99935.59;5074964;28;20032;-65
2022/12/23 00:52:56;;;;;;;15.10;4.00;;;;;;;9.37;100.00;99928.66;5075532;28;20408;-65
2022/12/23 00:55:24;;;;;;;13.52;2.78;;;;;;;9.35;100.00;99934.13;5074655;28;20047;-65
2022/12/23 00:57:51;;;;;;;10.27;3.25;;;;;;;9.29;100.00;99933.94;5074114;28;20491;-65
2022/12/23 01:00:18;;;;;;;15.65;3.10;;;;;;;9.29;100.00;99923.34;5074652;28;20555;-65
2022/12/23 01:05:38;;;;;;;16.38;3.22;;;;;;;9.38;100.00;99935.59;5089935;28;20048;-65
2022/12/23 01:08:08;;;;;;;12.70;3.00;;;;;;;9.40;100.00;99942.41;5089798;28;20390;-65
2022/12/23 01:10:38;;;;;;;10.48;3.13;;;;;;;9.37;100.00;99952.50;5074678;28;20053;-65
2022/12/23 01:13:06;;;;;;;11.98;2.90;;;;;;;9.31;100.00;99953.94;5073926;28;20099;-65
2022/12/23 01:15:48;;;;;;;12.07;3.03;;;;;;;9.34;100.00;99943.03;5074965;28;20056;-65
2022/12/23 01:18:14;;;;;;;;;;;;;;;9.34;100.00;99950.97;5075063;28;20071;-65
2022/12/23 01:20:41;;;;;;;13.27;3.40;;;;;;;9.35;100.00;99962.38;5074569;28;19920;-65
2022/12/23 01:23:07;;;;;;;15.30;3.10;;;;;;;9.32;100.00;99962.72;5074538;28;20054;-65
2022/12/23 01:25:34;;;;;;;14.43;3.33;;;;;;;9.35;100.00;99955.28;5073441;28;20062;-65
2022/12/23 01:28:01;;;;;;;15.52;4.00;;;;;;;9.30;100.00;99965.53;5073146;28;20049;-65
2022/12/23 01:30:27;;;;;;;13.35;3.53;;;;;;;9.30;100.00;99962.91;5074280;28;20045;-66
2022/12/23 01:32:54;;;;;;;12.43;3.65;;;;;;;9.38;100.00;99965.53;5073522;28;20513;-66
2022/12/23 01:35:21;;;;;;;14.30;4.00;;;;;;;9.39;100.00;99971.66;5089868;28;20040;-65
2022/12/23 01:37:48;;;;;;;14.05;4.07;;;;;;;9.34;100.00;99966.84;5089913;28;20052;-65
2022/12/23 01:40:15;;;;;;;13.27;4.03;;;;;;;9.28;100.00;99977.25;5073970;28;20539;-65
2022/12/23 01:42:42;;;;;;;13.10;4.05;;;;;;;9.23;100.00;99977.78;5074252;28;20064;-65
2022/12/23 01:45:19;;;;;;;13.45;4.43;;;;;;;9.26;100.00;99979.25;5073901;28;20041;-65
2022/12/23 01:48:13;;;;;;;15.52;4.43;;;;;;;9.20;100.00;99981.59;5089577;28;20132;-65
2022/12/23 01:50:45;;;;;;;18.50;4.70;;;;;;;9.25;100.00;99982.91;5073736;28;20052;-65
2022/12/23 01:53:19;;;;;;;15.45;4.90;;;;;;;9.28;100.00;99988.69;5073921;28;20045;-65
2022/12/23 01:55:59;;;;;;;19.65;5.45;;;;;;;9.36;100.00;99985.22;5073733;28;20048;-65
2022/12/23 01:58:47;;;;;;;18.48;5.35;;;;;;;9.29;100.00;99986.88;5073814;28;20075;-65
2022/12/23 02:04:06;;;;;;;16.55;5.70;;;;;;;9.36;100.00;99987.88;5073231;28;20048;-65
2022/12/23 02:09:25;;;;;;;21.23;6.13;;;;;;;9.37;100.00;99981.59;5072138;28;19921;-63
2022/12/23 02:12:21;;;;;;;16.33;5.88;;;;;;;9.36;100.00;99985.22;5089338;28;20440;-63
2022/12/23 02:18:31;;;;;;;15.77;5.88;;;;;;;9.32;100.00;99981.25;5073347;28;20414;-64
2022/12/23 02:21:22;;;;;;;19.35;6.30;;;;;;;9.26;100.00;99977.47;5072180;28;20120;-64
2022/12/23 02:24:22;;;;;;;18.35;6.03;;;;;;;9.31;100.00;99990.19;5073420;28;20056;-64
2022/12/23 02:27:06;;;;;;;16.45;6.00;;;;;;;9.40;100.00;99999.78;5072181;28;20048;-64
2022/12/23 02:30:12;;;;;;;16.42;6.20;;;;;;;9.35;100.00;100002.09;5073279;28;20055;-64
2022/12/23 02:32:57;;;;;;;14.27;6.00;;;;;;;9.44;100.00;100014.38;5071841;28;20072;-64
2022/12/23 02:35:39;;;;;;;19.60;6.15;;;;;;;9.43;100.00;100017.19;5075501;28;20041;-65
2022/12/23 02:38:15;;;;;;;15.38;5.38;;;;;;;9.41;100.00;100019.97;5068209;28;20383;-64
2022/12/23 02:41:12;;;;;;;18.00;5.70;;;;;;;9.35;100.00;100023.25;5053011;28;20049;-64
2022/12/23 02:43:45;;;;;;;19.00;6.10;;;;;;;9.37;100.00;100029.25;5051488;28;20067;-64
2022/12/23 02:46:24;;;;;;;20.10;6.75;;;;;;;9.32;100.00;100024.44;5052153;28;20049;-64
2022/12/23 02:49:14;;;;;;;19.02;7.28;;;;;;;9.36;100.00;100028.41;5052747;28;20044;-64
2022/12/23 02:51:46;;;;;;;15.68;7.63;;;;;;;9.32;100.00;100031.56;5053017;28;20037;-64
2022/12/23 02:54:23;;;;;;;18.23;7.97;;;;;;;9.38;100.00;100031.72;5052747;28;20040;-64
2022/12/23 02:56:53;;;;;;;22.33;8.27;;;;;;;9.36;100.00;100033.69;5068025;28;20465;-64
2022/12/23 02:59:25;;;;;;;19.40;8.25;;;;;;;9.36;100.00;100024.94;5052599;28;20044;-64
2022/12/23 03:01:52;;;;;;;;;;;;;;;9.30;100.00;100036.19;5053668;28;20095;-64
2022/12/23 03:04:20;;;;;;;25.55;9.38;;;;;;;9.33;100.00;100044.63;5060931;28;19921;-64
2022/12/23 03:06:50;;;;;;;28.02;9.55;;;;;;;9.36;100.00;100046.09;5072299;28;20132;-64
2022/12/23 03:09:30;;;;;;;22.05;8.88;;;;;;;9.38;100.00;100055.53;5073017;28;20045;-64
2022/12/23 03:12:21;;;;;;;19.02;9.57;;;;;;;9.36;100.00;100062.00;5072351;28;20217;-64
2022/12/23 03:15:05;;;;;;;21.05;9.30;;;;;;;9.35;100.00;100069.13;5071799;28;20401;-64
2022/12/23 03:20:31;;;;;;;24.55;10.50;;;;;;;9.46;100.00;100086.50;5131517;27;20326;-64
2022/12/23 03:23:11;;;;;;;19.90;8.27;;;;;;;9.43;100.00;100088.66;5110841;28;20043;-63
2022/12/23 03:26:02;;;;;;;20.45;9.57;;;;;;;9.40;100.00;100092.44;5110883;28;20068;-63
2022/12/23 03:28:39;;;;;;;26.98;9.48;;;;;;;9.42;100.00;100093.09;5110667;28;20032;-64
2022/12/23 03:31:12;;;;;;;23.95;8.68;;;;;;;9.39;100.00;100085.50;5111184;28;20075;-63
2022/12/23 03:33:43;;;;;;;25.33;9.75;;;;;;;9.38;100.00;100078.53;5089183;28;20509;-64
2022/12/23 03:36:19;;;;;;;31.80;9.43;;;;;;;9.35;100.00;100076.19;5056469;28;20044;-64
2022/12/23 03:38:49;;;;;;;25.52;9.65;;;;;;;9.37;100.00;100061.84;5090377;28;20777;-64
2022/12/23 03:41:22;;;;;;;26.92;9.77;;;;;;;9.39;100.00;100082.84;5090482;28;20383;-63
2022/12/23 03:43:56;;;;;;;27.55;9.40;;;;;;;9.34;100.00;100079.84;5090257;28;20050;-64
2022/12/23 03:46:31;;;;;;;24.17;9.20;;;;;;;9.33;100.00;100080.84;5090198;28;20051;-64
2022/12/23 03:49:02;;;;;;;24.60;8.93;;;;;;;9.30;100.00;100081.19;5090237;28;20457;-64
2022/12/23 03:51:37;;;;;;;23.50;8.63;;;;;;;9.29;100.00;100079.50;5055525;28;20448;-64
2022/12/23 03:54:11;;;;;;;27.23;9.13;;;;;;;9.30;100.00;100073.25;5090056;28;20066;-64
2022/12/23 03:56:44;;;;;;;22.75;9.25;;;;;;;9.35;100.00;100077.06;5089838;28;20449;-64
2022/12/23 03:59:18;;;;;;;25.65;9.18;;;;;;;9.41;100.00;100071.09;5089937;28;20036;-64
2022/12/23 04:01:59;;;;;;;35.90;9.75;;;;;;;9.35;100.00;100074.41;5089844;28;20044;-64
2022/12/23 04:04:41;;;;;;;27.40;9.88;;;;;;;9.33;100.00;100070.25;5089600;28;20432;-63
2022/12/23 04:07:16;;;;;;;24.88;9.10;;;;;;;9.34;100.00;100075.38;5089020;28;20052;-64
2022/12/23 04:09:43;;;;;;;30.13;9.23;;;;;;;9.31;100.00;100077.53;5089904;28;20041;-64
2022/12/23 04:12:10;;;;;;;22.10;9.40;;;;;;;9.37;100.00;100088.31;5072126;28;20048;-63
2022/12/23 04:14:44;;;;;;;24.33;8.82;;;;;;;9.29;100.00;100082.97;5071324;28;20118;-63
2022/12/23 04:17:10;;;;;;;26.80;9.43;;;;;;;9.32;100.00;100082.66;5071780;28;20064;-64
2022/12/23 04:19:37;;;;;;;25.15;8.48;;;;;;;9.31;100.00;100072.22;5081872;28;20490;-64
2022/12/23 04:22:04;;;;;;;25.63;7.68;;;;;;;9.34;100.00;100077.22;5089951;28;20051;-64
2022/12/23 04:24:31;;;;;;;30.65;8.60;;;;;;;9.30;100.00;100073.25;5071448;28;20089;-64
2022/12/23 04:26:58;;;;;;;22.88;7.70;;;;;;;9.26;100.00;100071.88;5089381;28;20055;-64
2022/12/23 04:29:25;;;;;;;26.45;7.93;;;;;;;9.26;100.00;100074.53;5089387;28;20036;-64
2022/12/23 04:31:51;;;;;;;21.55;7.35;;;;;;;9.36;100.00;100084.00;5075371;28;20055;-64
2022/12/23 04:34:18;;;;;;;21.35;6.78;;;;;;;9.29;100.00;100079.50;5070013;28;20040;-64
2022/12/23 04:36:45;;;;;;;27.08;6.63;;;;;;;9.15;100.00;100070.38;5064909;28;20045;-64
2022/12/23 04:39:11;;;;;;;21.48;6.38;;;;;;;9.13;100.00;100081.13;5075576;28;20640;-64
2022/12/23 04:41:38;;;;;;;25.98;6.70;;;;;;;9.11;100.00;100074.31;5075433;28;20493;-63
2022/12/23 04:44:05;;;;;;;21.58;6.88;;;;;;;9.06;100.00;100082.75;5074710;28;20045;-63
2022/12/23 04:46:32;;;;;;;20.15;6.28;;;;;;;9.03;100.00;100086.53;5075913;28;20486;-65
2022/12/23 04:48:58;;;;;;;18.02;5.75;;;;;;;9.05;100.00;100088.22;5075587;28;20401;-63
2022/12/23 04:51:25;;;;;;;24.05;6.90;;;;;;;9.06;100.00;100093.34;5075487;28;20044;-63
2022/12/23 04:53:52;;;;;;;19.45;6.20;;;;;;;9.07;100.00;100097.63;5075432;28;20486;-63
2022/12/23 04:56:18;;;;;;;21.80;5.90;;;;;;;9.07;100.00;100089.69;5075181;28;20048;-63
2022/12/23 04:58:45;;;;;;;18.52;5.80;;;;;;;9.08;100.00;100090.50;5074974;28;20036;-63
2022/12/23 05:01:13;;;;;;;18.23;5.80;;;;;;;9.09;100.00;100095.66;5075663;28;20052;-63
2022/12/23 05:03:40;;;;;;;15.30;5.65;;;;;;;9.07;100.00;100104.75;5074378;28;20037;-63
2022/12/23 05:06:07;;;;;;;22.02;5.65;;;;;;;9.17;100.00;100101.00;5073098;28;20044;-63
2022/12/23 05:08:35;;;;;;;17.00;5.07;;;;;;;9.15;100.00;100112.72;5075203;28;20049;-63
2022/12/23 05:11:02;;;;;;;17.15;5.10;;;;;;;9.20;100.00;100102.47;5074885;28;20044;-63
2022/12/23 05:13:28;;;;;;;18.95;5.68;;;;;;;9.15;100.00;100105.63;5075277;28;20431;-63
2022/12/23 05:15:55;;;;;;;23.25;5.82;;;;;;;9.22;100.00;100106.63;5074897;28;20048;-63
2022/12/23 05:18:22;;;;;;;20.88;5.60;;;;;;;9.19;100.00;100114.06;5073854;28;20056;-63
2022/12/23 05:20:48;;;;;;;18.80;5.43;;;;;;;9.21;100.00;100112.09;5074761;28;20119;-63
2022/12/23 05:23:15;;;;;;;17.70;5.13;;;;;;;9.22;100.00;100113.72;5074981;28;20055;-63
2022/12/23 05:25:42;;;;;;;20.70;5.22;;;;;;;9.24;100.00;100101.19;5074858;28;20037;-63
2022/12/23 05:28:09;;;;;;;13.80;4.72;;;;;;;9.20;100.00;100098.03;5074824;28;20056;-63
2022/12/23 05:30:37;;;;;;;18.33;5.22;;;;;;;9.18;100.00;100097.34;5074944;28;20052;-63
2022/12/23 05:33:03;;;;;;;19.48;5.13;;;;;;;9.17;100.00;100108.94;5074475;28;20045;-63
2022/12/23 05:35:30;;;;;;;16.25;5.03;;;;;;;9.19;100.00;100111.41;5074605;28;20067;-63
2022/12/23 05:37:57;;;;;;;13.18;4.82;;;;;;;9.18;100.00;100107.09;5074866;28;20490;-63
2022/12/23 05:40:23;;;;;;;14.35;4.60;;;;;;;9.25;100.00;100096.72;5074583;28;20119;-63
2022/12/23 05:42:50;;;;;;;20.15;5.57;;;;;;;9.25;100.00;100104.66;5073642;28;20049;-64
2022/12/23 05:45:17;;;;;;;23.20;5.47;;;;;;;9.20;100.00;100113.91;5074338;28;20512;-63
2022/12/23 05:47:43;;;;;;;15.63;5.10;;;;;;;9.20;100.00;100121.00;5073133;28;20402;-64
2022/12/23 05:50:10;;;;;;;19.85;5.25;;;;;;;9.18;100.00;100130.91;5074510;28;20060;-63
2022/12/23 05:52:37;;;;;;;17.33;5.20;;;;;;;9.22;100.00;100137.53;5074619;28;20056;-64
2022/12/23 05:55:04;;;;;;;14.55;5.57;;;;;;;9.26;100.00;100136.25;5074549;28;20413;-64
2022/12/23 05:57:31;;;;;;;25.05;5.93;;;;;;;9.24;100.00;100146.19;5073612;28;20517;-64
2022/12/23 05:59:58;;;;;;;19.08;5.10;;;;;;;9.21;100.00;100152.59;5074056;28;20032;-64
2022/12/23 06:02:26;;;;;;;17.92;5.47;;;;;;;9.26;100.00;100154.78;5074261;28;20494;-64
2022/12/23 06:04:52;;;;;;;14.77;5.68;;;;;;;9.30;100.00;100156.13;5073996;28;20049;-64
2022/12/23 06:07:19;;;;;;;16.88;5.85;;;;;;;9.29;100.00;100164.22;5073649;28;20501;-63
2022/12/23 06:09:46;;;;;;;16.95;6.32;;;;;;;9.26;100.00;100160.06;5074111;28;20442;-64
2022/12/23 06:12:12;;;;;;;24.13;7.18;;;;;;;9.23;100.00;100165.69;5074196;28;20052;-64
2022/12/23 06:14:39;;;;;;;17.25;7.70;;;;;;;9.19;100.00;100167.00;5073896;28;20140;-64
2022/12/23 06:17:06;;;;;;;16.65;6.90;;;;;;;9.18;100.00;100170.63;5073790;28;20043;-64
2022/12/23 06:19:32;;;;;;;17.88;7.88;;;;;;;9.14;100.00;100164.81;5059730;28;20053;-64
2022/12/23 06:21:59;;;;;;;21.10;7.57;;;;;;;9.16;100.00;100160.19;5053867;28;20048;-65
2022/12/23 06:24:26;;;;;;;18.67;7.43;;;;;;;9.20;100.00;100152.75;5053894;28;20044;-64
2022/12/23 06:26:52;;;;;;;22.65;8.35;;;;;;;9.17;100.00;100145.97;5053954;28;20125;-65
2022/12/23 06:29:23;;;;;;;21.38;7.85;;;;;;;9.32;100.00;100150.66;5036374;28;20037;-65
2022/12/23 06:31:49;;;;;;;25.05;7.95;;;;;;;9.30;100.00;100147.34;5036107;28;20398;-65
2022/12/23 06:34:16;;;;;;;24.45;8.38;;;;;;;9.29;100.00;100138.56;5053772;28;20075;-65
2022/12/23 06:36:43;;;;;;;24.73;7.35;;;;;;;9.28;100.00;100136.06;5020236;28;20080;-65
2022/12/23 06:39:10;;;;;;;19.35;8.30;;;;;;;9.21;100.00;100136.72;5035466;28;20041;-65
2022/12/23 06:41:37;;;;;;;20.65;7.45;;;;;;;9.22;100.00;100127.81;5052908;28;20041;-65
2022/12/23 06:44:04;;;;;;;18.90;8.25;;;;;;;9.28;100.00;100128.13;5053736;28;20049;-65
2022/12/23 06:46:30;;;;;;;21.10;7.82;;;;;;;9.25;100.00;100128.47;5053253;28;20045;-64
2022/12/23 06:48:58;;;;;;;23.02;8.10;;;;;;;9.27;100.00;100119.38;5035649;28;20140;-64
2022/12/23 06:51:24;;;;;;;22.50;7.88;;;;;;;9.32;100.00;100119.72;5053151;28;20047;-64
2022/12/23 06:53:51;;;;;;;23.38;7.93;;;;;;;9.35;100.00;100119.41;5052847;28;20052;-64
2022/12/23 06:56:17;;;;;;;23.92;8.18;;;;;;;9.34;100.00;100130.16;5035455;28;20494;-64
2022/12/23 06:58:44;;;;;;;22.25;7.78;;;;;;;9.39;100.00;100127.84;5052868;28;20041;-64
2022/12/23 07:01:11;;;;;;;24.58;7.85;;;;;;;9.30;100.00;100131.47;5053069;28;20044;-64
2022/12/23 07:03:40;;;;;;;21.27;7.35;;;;;;;9.26;100.00;100122.16;5053337;28;20069;-64
2022/12/23 07:06:06;;;;;;;21.60;7.40;;;;;;;9.22;100.00;100121.66;5051428;28;20047;-64
2022/12/23 07:08:33;;;;;;;22.33;7.72;;;;;;;9.26;100.00;100124.81;5034329;28;20091;-64
2022/12/23 07:11:02;;;;;;;19.35;7.47;;;;;;;9.21;100.00;100130.59;5052558;28;20052;-64
2022/12/23 07:13:30;;;;;;;20.27;8.20;;;;;;;9.22;100.00;100146.34;5034860;28;20079;-64
2022/12/23 07:15:57;;;;;;;19.85;7.70;;;;;;;9.31;100.00;100162.22;5052919;28;20090;-64
2022/12/23 07:18:24;;;;;;;21.42;8.07;;;;;;;9.23;100.00;100182.38;5052978;28;20064;-65
2022/12/23 07:20:51;;;;;;;22.23;7.75;;;;;;;9.28;100.00;100194.28;5053053;28;20037;-65
2022/12/23 07:23:18;;;;;;;25.63;8.48;;;;;;;9.26;100.00;100185.69;5052534;28;20045;-64
2022/12/23 07:25:44;;;;;;;22.73;7.68;;;;;;;9.26;100.00;100190.97;5053319;28;20069;-65
2022/12/23 07:28:12;;;;;;;21.80;8.02;;;;;;;9.31;100.00;100194.00;5052651;28;20055;-65
2022/12/23 07:30:39;;;;;;;17.33;7.70;;;;;;;9.36;100.00;100200.47;5051845;28;20041;-65
2022/12/23 07:33:05;;;;;;;24.13;8.18;;;;;;;9.19;100.00;100201.41;5034864;28;20114;-65
2022/12/23 07:35:32;;;;;;;29.23;8.95;;;;;;;9.16;100.00;100196.41;5056069;28;20036;-65
2022/12/23 07:37:59;;;;;;;21.60;8.68;;;;;;;9.25;100.00;100200.75;5035890;28;20558;-65
2022/12/23 07:40:26;;;;;;;26.35;9.60;;;;;;;9.30;100.00;100195.00;5072859;28;20043;-65
2022/12/23 07:42:55;;;;;;;27.35;9.93;;;;;;;9.29;100.00;100203.91;5054967;28;20375;-66
2022/12/23 07:45:22;;;;;;;21.90;9.02;;;;;;;9.44;100.00;100209.44;5072265;28;20050;-65
2022/12/23 07:47:53;;;;;;;35.97;16.05;;;;;;;9.53;100.00;100204.03;5072400;28;20048;-66
2022/12/23 07:50:21;;;;;;;25.08;9.10;;;;;;;9.60;100.00;100202.38;5072812;28;20041;-65
2022/12/23 07:52:48;;;;;;;26.33;9.52;;;;;;;9.52;100.00;100194.41;5069972;28;20723;-67
2022/12/23 07:55:14;;;;;;;21.55;8.75;;;;;;;9.47;100.00;100196.69;5019708;28;20048;-67
2022/12/23 07:57:41;;;;;;;23.42;8.93;;;;;;;9.45;100.00;100195.22;5018293;28;20080;-66
2022/12/23 08:00:11;;;;;;;23.55;9.32;;;;;;;9.43;100.00;100190.06;5051699;28;20072;-65
2022/12/23 08:02:39;;;;;;;20.02;9.52;;;;;;;9.52;100.00;100189.13;5053511;28;20549;-66
2022/12/23 08:05:08;;;;;;;19.55;8.88;;;;;;;9.51;100.00;100187.44;5052597;28;20044;-67
2022/12/23 08:07:35;;;;;;;21.60;9.05;;;;;;;9.50;100.00;100191.09;5052510;28;20139;-67
2022/12/23 08:10:02;;;;;;;23.00;9.60;;;;;;;9.43;100.00;100197.19;5061569;28;20095;-67
2022/12/23 08:12:29;;;;;;;21.45;9.07;;;;;;;9.45;100.00;100198.69;5055107;28;20071;-67
2022/12/23 08:14:56;;;;;;;25.15;9.68;;;;;;;9.41;100.00;100192.06;5038309;28;20049;-67
2022/12/23 08:17:27;;;;;;;26.88;9.55;;;;;;;9.41;100.00;100189.41;5056382;28;20098;-68
2022/12/23 08:19:55;;;;;;;27.17;8.82;;;;;;;9.45;100.00;100196.03;5050639;28;20044;-67
2022/12/23 08:22:23;;;;;;;22.50;8.80;;;;;;;9.49;100.00;100199.19;5076199;28;20448;-67
2022/12/23 08:24:49;;;;;;;21.27;9.15;;;;;;;9.51;100.00;100191.91;5075849;28;20048;-68
2022/12/23 08:27:16;;;;;;;30.55;9.13;;;;;;;9.46;100.00;100181.81;5075868;28;20044;-67
2022/12/23 08:29:43;;;;;;;25.05;9.05;;;;;;;9.44;100.00;100173.22;5075810;28;20043;-68
2022/12/23 08:32:09;;;;;;;24.27;9.05;;;;;;;9.41;100.00;100177.00;5076018;28;20045;-68
2022/12/23 08:34:37;;;;;;;17.70;8.85;;;;;;;9.48;100.00;100174.53;5075499;28;20049;-67
2022/12/23 08:37:04;;;;;;;20.27;8.60;;;;;;;9.38;100.00;100179.94;5060941;28;20041;-67
2022/12/23 08:39:31;;;;;;;25.40;9.20;;;;;;;9.43;100.00;100176.84;5073786;28;20145;-67
2022/12/23 08:41:57;;;;;;;23.75;9.00;;;;;;;9.49;100.00;100157.66;5073525;28;20048;-67
2022/12/23 08:44:26;;;;;;;22.92;8.23;;;;;;;9.46;100.00;100162.44;5074483;28;20068;-67
2022/12/23 08:46:54;;;;;;;18.38;8.43;;;;;;;9.40;100.00;100169.22;5075258;28;20516;-68
2022/12/23 08:49:21;;;;;;;23.08;8.40;;;;;;;9.36;100.00;100170.53;5075567;28;20045;-68
2022/12/23 08:51:48;;;;;;;20.35;8.00;;;;;;;9.36;100.00;100168.69;5075686;28;20090;-67
2022/12/23 08:54:16;;;;;;;18.27;7.50;;;;;;;9.30;100.00;100158.75;5074433;28;20056;-67
2022/12/23 08:56:43;;;;;;;24.15;8.02;;;;;;;9.30;100.00;100176.47;5060492;28;20117;-67
2022/12/23 08:59:14;;;;;;;19.33;8.20;;;;;;;9.26;100.00;100173.31;5087019;28;20496;-67
2022/12/23 09:01:44;;;;;;;18.27;7.97;;;;;;;9.32;100.00;100174.47;5064882;28;20048;-67
2022/12/23 09:04:10;;;;;;;19.35;8.85;;;;;;;9.31;100.00;100170.16;5089656;28;20043;-68
2022/12/23 09:06:41;;;;;;;26.95;8.43;;;;;;;9.32;100.00;100177.13;5073207;28;20350;-68
2022/12/23 09:09:11;;;;;;;20.00;9.18;;;;;;;9.23;100.00;100178.91;5101499;28;20094;-68
2022/12/23 09:11:38;;;;;;;24.05;10.20;;;;;;;9.31;100.00;100181.56;5074558;28;20123;-62
2022/12/23 09:14:07;;;;;;;22.02;10.05;;;;;;;9.30;100.00;100182.59;5082206;28;20040;-62
2022/12/23 09:16:34;;;;;;;24.48;9.30;;;;;;;9.29;100.00;100183.56;5066195;28;20494;-62
2022/12/23 09:19:01;;;;;;;42.58;14.93;;;;;;;9.40;100.00;100182.44;5078215;28;20494;-59
2022/12/23 09:21:28;;;;;;;25.80;9.75;;;;;;;9.28;100.00;100176.63;5073925;28;20044;-59
2022/12/23 09:23:54;;;;;;;27.77;9.57;;;;;;;9.34;100.00;100170.69;5084981;28;20494;-59
2022/12/23 09:26:24;;;;;;;25.77;10.15;;;;;;;9.38;100.00;100169.34;5071589;28;20099;-59
2022/12/23 09:28:52;;;;;;;31.88;10.27;;;;;;;9.40;100.00;100156.81;5082706;28;20048;-59
2022/12/23 09:31:20;;;;;;;25.73;9.20;;;;;;;9.47;100.00;100154.34;5091177;28;20047;-59
2022/12/23 09:33:48;;;;;;;22.70;8.73;;;;;;;9.52;100.00;100159.97;5063954;28;20044;-62
2022/12/23 09:36:16;;;;;;;24.45;9.20;;;;;;;9.38;100.00;100163.25;5092447;28;20048;-62
2022/12/23 09:38:43;;;;;;;23.65;8.93;;;;;;;9.47;100.00;100156.16;5058082;28;20052;-62
2022/12/23 09:41:23;;;;;;;22.38;9.48;;;;;;;9.45;100.00;100134.31;5074639;28;20513;-62
2022/12/23 09:44:20;;;;;;;28.30;9.10;;;;;;;9.48;100.00;100131.34;5061938;28;20052;-62
2022/12/23 09:46:52;;;;;;;35.65;9.32;;;;;;;9.51;100.00;100138.97;5057892;28;20059;-62
2022/12/23 09:49:21;;;;;;;31.27;9.98;;;;;;;9.47;100.00;100146.41;5094456;28;20131;-62
2022/12/23 09:51:53;;;;;;;22.65;8.35;;;;;;;9.47;100.00;100148.22;5063811;28;20048;-61
2022/12/23 09:54:24;;;;;;;23.92;8.77;;;;;;;9.41;100.00;100132.00;5083379;28;20083;-62
2022/12/23 09:59:56;;;;;;;18.95;8.70;;;;;;;9.44;100.00;100103.53;5110565;27;20798;-67
2022/12/23 10:02:59;;;;;;;22.33;9.05;;;;;;;9.55;100.00;100104.06;5075713;28;20165;-67
2022/12/23 10:08:44;;;;;;;25.80;9.43;;;;;;;9.65;100.00;100105.72;5095733;27;20355;-67
2022/12/23 10:11:36;;;;;;;24.38;9.27;;;;;;;9.64;100.00;100104.91;5121759;28;20560;-67
2022/12/23 10:14:15;;;;;;;22.85;9.30;;;;;;;9.55;100.00;100100.56;5096892;27;20050;-67
2022/12/23 10:16:45;;;;;;;24.02;9.25;;;;;;;9.56;100.00;100097.75;5131396;27;20489;-68
2022/12/23 10:19:29;;;;;;;24.13;9.23;;;;;;;9.63;100.00;100082.06;5108420;27;20039;-68
2022/12/23 10:22:02;;;;;;;21.95;9.45;;;;;;;9.66;100.00;100071.16;5114445;27;20393;-68
2022/12/23 10:24:36;;;;;;;18.50;9.38;;;;;;;9.69;100.00;100068.16;5106351;28;20040;-67
2022/12/23 10:27:30;;;;;;;19.67;9.02;;;;;;;9.73;100.00;100055.41;5111627;28;20050;-67
2022/12/23 10:30:11;;;;;;;17.77;8.75;;;;;;;9.77;100.00;100046.16;5111336;28;20126;-67
2022/12/23 10:33:08;;;;;;;20.08;8.93;;;;;;;9.75;100.00;100043.66;5101447;27;20033;-62
2022/12/23 10:36:14;;;;;;;21.00;8.07;;;;;;;9.73;100.00;100048.31;5110986;27;20565;-62
2022/12/23 10:38:52;;;;;;;14.77;7.50;;;;;;;9.78;100.00;100050.44;5079914;28;20039;-62
2022/12/23 10:41:45;;;;;;;20.08;7.88;;;;;;;9.76;100.00;100052.44;5096565;28;20123;-65
2022/12/23 10:50:13;;;;;;;17.92;6.95;;;;;;;9.52;100.00;100037.38;5115068;27;20353;-66
2022/12/23 10:52:44;;;;;;;16.00;7.63;;;;;;;9.54;100.00;100030.09;5106317;27;20067;-60
2022/12/23 10:55:23;;;;;;;13.60;6.82;;;;;;;9.56;100.00;100041.34;5121366;28;20507;-60
2022/12/23 10:57:58;;;;;;;15.15;6.72;;;;;;;9.61;100.00;100028.44;5091546;27;20046;-60
2022/12/23 11:00:25;;;;;;;15.52;7.88;;;;;;;9.61;100.00;100018.66;5111329;28;20070;-60
2022/12/23 11:03:17;;;;;;;15.68;7.18;;;;;;;9.64;100.00;100012.22;5102659;28;20393;-60
2022/12/23 11:05:47;;;;;;;17.00;6.20;;;;;;;9.67;100.00;100017.16;5094475;27;20032;-57
2022/12/23 11:08:14;;;;;;;15.98;6.38;;;;;;;9.69;100.00;100009.88;5102326;28;20039;-57
2022/12/23 11:10:41;;;;;;;12.57;6.07;;;;;;;9.67;100.00;99997.81;5099745;27;20485;-58
2022/12/23 11:13:08;;;;;;;11.00;5.38;;;;;;;9.66;100.00;100010.22;5111637;28;20127;-57
2022/12/23 11:15:39;;;;;;;12.45;5.28;;;;;;;9.63;100.00;99994.66;5094850;27;20141;-57
2022/12/23 11:18:17;;;;;;;14.18;4.75;;;;;;;9.61;100.00;100001.94;5117664;28;20046;-57
2022/12/23 11:21:00;;;;;;;10.88;4.60;;;;;;;9.65;100.00;99997.97;5090182;28;20037;-57
2022/12/23 11:23:31;;;;;;;10.93;4.25;;;;;;;9.69;100.00;99996.63;5069472;28;20109;-57
2022/12/23 11:26:08;;;;;;;9.90;3.93;;;;;;;9.72;100.00;99988.38;5111883;28;20067;-57
2022/12/23 11:28:39;;;;;;;11.90;3.90;;;;;;;9.77;100.00;99979.94;5081631;28;20064;-57
2022/12/23 11:31:10;;;;;;;15.43;4.40;;;;;;;9.79;100.00;99968.16;5107887;28;20493;-57
2022/12/23 11:33:44;;;;;;;13.45;5.78;;;;;;;9.80;100.00;99955.75;5087124;28;20106;-57
2022/12/23 11:36:22;;;;;;;15.02;4.28;;;;;;;9.87;100.00;99956.72;5118155;28;20067;-57
2022/12/23 11:39:11;;;;;;;11.43;4.18;;;;;;;9.87;100.00;99956.72;5089303;28;20137;-58
2022/12/23 11:41:46;;;;;;;12.70;4.80;;;;;;;9.88;100.00;99945.16;5097847;28;20047;-57
2022/12/23 11:44:21;;;;;;;19.30;8.30;;;;;;;9.79;100.00;99940.84;5077842;28;20047;-59
2022/12/23 11:46:49;;;;;;;15.43;4.70;;;;;;;9.94;100.00;99933.03;5100857;28;20093;-59
2022/12/23 11:49:20;;;;;;;11.60;4.93;;;;;;;9.72;100.00;99916.03;5083860;28;20109;-61
2022/12/23 11:52:09;;;;;;;14.05;5.05;;;;;;;9.67;100.00;99902.47;5093271;28;20050;-59
2022/12/23 11:54:36;;;;;;;11.77;4.20;;;;;;;9.60;100.00;99897.00;5095696;28;20097;-64
2022/12/23 11:57:07;;;;;;;11.63;4.80;;;;;;;9.63;100.00;99883.44;5107633;28;20103;-64
2022/12/23 11:59:42;;;;;;;16.27;4.80;;;;;;;9.68;100.00;99880.28;5070050;28;20048;-63
2022/12/23 12:02:18;;;;;;;13.23;5.32;;;;;;;9.73;100.00;99865.56;5074883;28;20118;-63
2022/12/23 12:04:55;;;;;;;16.08;5.35;;;;;;;9.72;100.00;99860.44;5068245;28;20096;-63
2022/12/23 12:07:22;;;;;;;13.52;5.10;;;;;;;9.77;100.00;99858.09;5106077;28;20058;-63
2022/12/23 12:09:50;;;;;;;13.65;5.88;;;;;;;9.70;100.00;99846.53;5093658;28;20440;-63
2022/12/23 12:12:19;;;;;;;17.27;5.75;;;;;;;9.74;100.00;99838.06;5088731;28;20493;-63
2022/12/23 12:14:50;;;;;;;19.60;5.97;;;;;;;9.50;100.00;99844.25;5065641;28;21921;-63
2022/12/23 12:17:26;;;;;;;22.25;6.47;;;;;;;9.37;100.00;99846.59;5076294;28;20497;-67